sensor_id;sensor_type;location;lat;lon;timestamp;P1;durP1;ratioP1;P2;durP2;ratioP2
19434;SDS011;9853;50.848;4.108;2023-08-17T00:01:30;1.15;;;0.88;;
19434;SDS011;9853;50.848;4.108;2023-08-17T00:03:30;2.55;;;1.08;;
19434;SDS011;9853;50.848;4.108;2023-08-17T00:05:31;1.00;;;0.75;;
19434;SDS011;9853;50.848;4.108;2023-08-17T00:07:33;1.65;;;0.90;;
19434;SDS011;9853;50.848;4.108;2023-08-17T00:09:34;3.47;;;0.98;;
19434;SDS011;9853;50.848;4.108;2023-08-17T00:11:35;3.53;;;1.33;;
19434;SDS011;9853;50.848;4.108;2023-08-17T00:13:35;0.68;;;0.60;;
19434;SDS011;9853;50.848;4.108;2023-08-17T00:15:36;2.65;;;1.08;;
19434;SDS011;9853;50.848;4.108;2023-08-17T00:17:37;1.67;;;1.08;;
19434;SDS011;9853;50.848;4.108;2023-08-17T00:19:38;1.40;;;0.93;;
19434;SDS011;9853;50.848;4.108;2023-08-17T00:21:38;1.50;;;0.80;;
19434;SDS011;9853;50.848;4.108;2023-08-17T00:23:39;1.50;;;0.80;;
19434;SDS011;9853;50.848;4.108;2023-08-17T00:25:40;1.95;;;0.80;;
19434;SDS011;9853;50.848;4.108;2023-08-17T00:27:41;1.40;;;1.00;;
19434;SDS011;9853;50.848;4.108;2023-08-17T00:29:42;1.17;;;0.88;;
19434;SDS011;9853;50.848;4.108;2023-08-17T00:31:42;1.38;;;0.70;;
19434;SDS011;9853;50.848;4.108;2023-08-17T00:33:43;2.13;;;0.80;;
19434;SDS011;9853;50.848;4.108;2023-08-17T00:35:44;0.60;;;0.55;;
19434;SDS011;9853;50.848;4.108;2023-08-17T00:37:45;2.13;;;0.95;;
19434;SDS011;9853;50.848;4.108;2023-08-17T00:39:46;1.02;;;0.75;;
19434;SDS011;9853;50.848;4.108;2023-08-17T00:41:47;1.13;;;0.82;;
19434;SDS011;9853;50.848;4.108;2023-08-17T00:43:48;0.80;;;0.80;;
19434;SDS011;9853;50.848;4.108;2023-08-17T00:45:48;1.08;;;0.77;;
19434;SDS011;9853;50.848;4.108;2023-08-17T00:47:49;1.58;;;0.90;;
19434;SDS011;9853;50.848;4.108;2023-08-17T00:49:50;1.75;;;0.95;;
19434;SDS011;9853;50.848;4.108;2023-08-17T00:51:51;2.70;;;0.95;;
19434;SDS011;9853;50.848;4.108;2023-08-17T00:53:52;1.30;;;0.88;;
19434;SDS011;9853;50.848;4.108;2023-08-17T00:55:59;0.88;;;0.88;;
19434;SDS011;9853;50.848;4.108;2023-08-17T00:58:01;1.02;;;0.85;;
19434;SDS011;9853;50.848;4.108;2023-08-17T01:00:02;1.13;;;0.75;;
19434;SDS011;9853;50.848;4.108;2023-08-17T01:02:04;0.90;;;0.60;;
19434;SDS011;9853;50.848;4.108;2023-08-17T01:04:05;0.70;;;0.60;;
19434;SDS011;9853;50.848;4.108;2023-08-17T01:06:06;3.72;;;1.10;;
19434;SDS011;9853;50.848;4.108;2023-08-17T01:08:07;2.45;;;1.13;;
19434;SDS011;9853;50.848;4.108;2023-08-17T01:10:09;2.38;;;0.90;;
19434;SDS011;9853;50.848;4.108;2023-08-17T01:14:31;0.73;;;0.63;;
19434;SDS011;9853;50.848;4.108;2023-08-17T01:16:44;1.90;;;0.80;;
19434;SDS011;9853;50.848;4.108;2023-08-17T01:18:51;1.20;;;0.70;;
19434;SDS011;9853;50.848;4.108;2023-08-17T01:20:53;3.42;;;0.60;;
19434;SDS011;9853;50.848;4.108;2023-08-17T01:22:55;1.98;;;0.88;;
19434;SDS011;9853;50.848;4.108;2023-08-17T01:24:59;1.10;;;0.73;;
19434;SDS011;9853;50.848;4.108;2023-08-17T01:26:59;1.95;;;0.80;;
19434;SDS011;9853;50.848;4.108;2023-08-17T01:29:00;2.20;;;1.20;;
19434;SDS011;9853;50.848;4.108;2023-08-17T01:31:08;1.20;;;1.08;;
19434;SDS011;9853;50.848;4.108;2023-08-17T01:33:18;0.82;;;0.70;;
19434;SDS011;9853;50.848;4.108;2023-08-17T01:37:37;1.85;;;0.75;;
19434;SDS011;9853;50.848;4.108;2023-08-17T01:39:43;1.10;;;0.73;;
19434;SDS011;9853;50.848;4.108;2023-08-17T01:41:45;2.38;;;1.08;;
19434;SDS011;9853;50.848;4.108;2023-08-17T01:43:47;1.40;;;1.10;;
19434;SDS011;9853;50.848;4.108;2023-08-17T01:45:48;1.50;;;1.10;;
19434;SDS011;9853;50.848;4.108;2023-08-17T01:47:49;2.97;;;1.35;;
19434;SDS011;9853;50.848;4.108;2023-08-17T01:49:50;1.33;;;0.90;;
19434;SDS011;9853;50.848;4.108;2023-08-17T01:51:50;1.23;;;1.05;;
19434;SDS011;9853;50.848;4.108;2023-08-17T01:53:51;1.17;;;0.93;;
19434;SDS011;9853;50.848;4.108;2023-08-17T01:55:52;2.00;;;1.08;;
19434;SDS011;9853;50.848;4.108;2023-08-17T01:57:53;1.65;;;0.88;;
19434;SDS011;9853;50.848;4.108;2023-08-17T01:59:53;1.92;;;1.10;;
19434;SDS011;9853;50.848;4.108;2023-08-17T02:01:54;1.40;;;0.60;;
19434;SDS011;9853;50.848;4.108;2023-08-17T02:03:55;2.78;;;1.20;;
19434;SDS011;9853;50.848;4.108;2023-08-17T02:05:56;2.35;;;1.05;;
19434;SDS011;9853;50.848;4.108;2023-08-17T02:07:57;1.77;;;1.00;;
19434;SDS011;9853;50.848;4.108;2023-08-17T02:09:58;1.20;;;1.08;;
19434;SDS011;9853;50.848;4.108;2023-08-17T02:11:59;2.70;;;1.20;;
19434;SDS011;9853;50.848;4.108;2023-08-17T02:14:01;1.35;;;0.90;;
19434;SDS011;9853;50.848;4.108;2023-08-17T02:16:01;1.35;;;0.88;;
19434;SDS011;9853;50.848;4.108;2023-08-17T02:18:02;1.50;;;1.15;;
19434;SDS011;9853;50.848;4.108;2023-08-17T02:20:03;0.90;;;0.63;;
19434;SDS011;9853;50.848;4.108;2023-08-17T02:22:05;2.28;;;1.38;;
19434;SDS011;9853;50.848;4.108;2023-08-17T02:24:05;1.13;;;0.60;;
19434;SDS011;9853;50.848;4.108;2023-08-17T02:26:06;1.20;;;0.90;;
19434;SDS011;9853;50.848;4.108;2023-08-17T02:28:07;1.48;;;0.82;;
19434;SDS011;9853;50.848;4.108;2023-08-17T02:30:08;1.48;;;0.85;;
19434;SDS011;9853;50.848;4.108;2023-08-17T02:32:09;1.33;;;0.88;;
19434;SDS011;9853;50.848;4.108;2023-08-17T02:34:10;2.67;;;1.42;;
19434;SDS011;9853;50.848;4.108;2023-08-17T02:36:11;1.08;;;0.68;;
19434;SDS011;9853;50.848;4.108;2023-08-17T02:38:11;2.35;;;1.02;;
19434;SDS011;9853;50.848;4.108;2023-08-17T02:40:12;0.85;;;0.47;;
19434;SDS011;9853;50.848;4.108;2023-08-17T02:42:13;1.15;;;0.80;;
19434;SDS011;9853;50.848;4.108;2023-08-17T02:44:14;0.65;;;0.55;;
19434;SDS011;9853;50.848;4.108;2023-08-17T02:46:15;2.33;;;0.82;;
19434;SDS011;9853;50.848;4.108;2023-08-17T02:48:16;3.08;;;0.80;;
19434;SDS011;9853;50.848;4.108;2023-08-17T02:50:16;1.20;;;1.08;;
19434;SDS011;9853;50.848;4.108;2023-08-17T02:52:17;6.28;;;0.93;;
19434;SDS011;9853;50.848;4.108;2023-08-17T02:54:18;1.02;;;0.65;;
19434;SDS011;9853;50.848;4.108;2023-08-17T02:56:19;1.00;;;0.80;;
19434;SDS011;9853;50.848;4.108;2023-08-17T02:58:21;1.35;;;1.15;;
19434;SDS011;9853;50.848;4.108;2023-08-17T03:00:22;4.03;;;0.95;;
19434;SDS011;9853;50.848;4.108;2023-08-17T03:02:23;1.58;;;0.98;;
19434;SDS011;9853;50.848;4.108;2023-08-17T03:04:23;1.20;;;0.85;;
19434;SDS011;9853;50.848;4.108;2023-08-17T03:06:24;3.25;;;1.15;;
19434;SDS011;9853;50.848;4.108;2023-08-17T03:08:25;2.03;;;0.70;;
19434;SDS011;9853;50.848;4.108;2023-08-17T03:10:27;0.80;;;0.80;;
19434;SDS011;9853;50.848;4.108;2023-08-17T03:12:27;2.45;;;0.75;;
19434;SDS011;9853;50.848;4.108;2023-08-17T03:14:28;1.55;;;1.10;;
19434;SDS011;9853;50.848;4.108;2023-08-17T03:16:29;2.05;;;1.10;;
19434;SDS011;9853;50.848;4.108;2023-08-17T03:18:30;3.25;;;0.80;;
19434;SDS011;9853;50.848;4.108;2023-08-17T03:20:31;3.75;;;0.85;;
19434;SDS011;9853;50.848;4.108;2023-08-17T03:22:32;0.88;;;0.80;;
19434;SDS011;9853;50.848;4.108;2023-08-17T03:24:33;1.80;;;1.00;;
19434;SDS011;9853;50.848;4.108;2023-08-17T03:26:34;1.17;;;0.98;;
19434;SDS011;9853;50.848;4.108;2023-08-17T03:28:35;1.45;;;0.95;;
19434;SDS011;9853;50.848;4.108;2023-08-17T03:30:36;1.25;;;0.85;;
19434;SDS011;9853;50.848;4.108;2023-08-17T03:32:36;3.95;;;1.00;;
19434;SDS011;9853;50.848;4.108;2023-08-17T03:34:37;0.77;;;0.70;;
19434;SDS011;9853;50.848;4.108;2023-08-17T03:36:38;4.20;;;1.55;;
19434;SDS011;9853;50.848;4.108;2023-08-17T03:38:39;1.40;;;0.80;;
19434;SDS011;9853;50.848;4.108;2023-08-17T03:40:40;1.10;;;0.70;;
19434;SDS011;9853;50.848;4.108;2023-08-17T03:42:40;2.13;;;1.20;;
19434;SDS011;9853;50.848;4.108;2023-08-17T03:44:42;2.78;;;0.90;;
19434;SDS011;9853;50.848;4.108;2023-08-17T03:46:42;0.95;;;0.80;;
19434;SDS011;9853;50.848;4.108;2023-08-17T03:48:43;1.70;;;0.90;;
19434;SDS011;9853;50.848;4.108;2023-08-17T03:50:44;0.93;;;0.73;;
19434;SDS011;9853;50.848;4.108;2023-08-17T03:52:46;1.65;;;1.02;;
19434;SDS011;9853;50.848;4.108;2023-08-17T03:54:47;9.55;;;1.50;;
19434;SDS011;9853;50.848;4.108;2023-08-17T03:56:47;6.75;;;1.40;;
19434;SDS011;9853;50.848;4.108;2023-08-17T03:58:49;1.63;;;1.00;;
19434;SDS011;9853;50.848;4.108;2023-08-17T04:00:51;1.58;;;0.85;;
19434;SDS011;9853;50.848;4.108;2023-08-17T04:02:58;0.85;;;0.80;;
19434;SDS011;9853;50.848;4.108;2023-08-17T04:04:59;0.77;;;0.70;;
19434;SDS011;9853;50.848;4.108;2023-08-17T04:07:00;0.90;;;0.75;;
19434;SDS011;9853;50.848;4.108;2023-08-17T04:09:00;2.60;;;1.30;;
19434;SDS011;9853;50.848;4.108;2023-08-17T04:11:01;1.42;;;0.77;;
19434;SDS011;9853;50.848;4.108;2023-08-17T04:13:02;2.95;;;1.02;;
19434;SDS011;9853;50.848;4.108;2023-08-17T04:15:03;1.65;;;0.90;;
19434;SDS011;9853;50.848;4.108;2023-08-17T04:17:05;0.98;;;0.82;;
19434;SDS011;9853;50.848;4.108;2023-08-17T04:19:06;1.58;;;0.60;;
19434;SDS011;9853;50.848;4.108;2023-08-17T04:21:08;0.57;;;0.50;;
19434;SDS011;9853;50.848;4.108;2023-08-17T04:23:09;1.60;;;1.00;;
19434;SDS011;9853;50.848;4.108;2023-08-17T04:25:10;1.27;;;0.75;;
19434;SDS011;9853;50.848;4.108;2023-08-17T04:27:11;2.28;;;0.85;;
19434;SDS011;9853;50.848;4.108;2023-08-17T04:29:13;0.93;;;0.82;;
19434;SDS011;9853;50.848;4.108;2023-08-17T04:31:14;2.15;;;1.08;;
19434;SDS011;9853;50.848;4.108;2023-08-17T04:33:17;0.85;;;0.75;;
19434;SDS011;9853;50.848;4.108;2023-08-17T04:35:18;1.52;;;1.10;;
19434;SDS011;9853;50.848;4.108;2023-08-17T04:37:19;4.60;;;1.35;;
19434;SDS011;9853;50.848;4.108;2023-08-17T04:39:20;4.70;;;0.93;;
19434;SDS011;9853;50.848;4.108;2023-08-17T04:41:21;9.63;;;0.90;;
19434;SDS011;9853;50.848;4.108;2023-08-17T04:43:22;1.92;;;1.02;;
19434;SDS011;9853;50.848;4.108;2023-08-17T04:45:23;2.35;;;1.00;;
19434;SDS011;9853;50.848;4.108;2023-08-17T04:47:24;3.90;;;0.90;;
19434;SDS011;9853;50.848;4.108;2023-08-17T04:49:24;2.13;;;0.77;;
19434;SDS011;9853;50.848;4.108;2023-08-17T04:51:26;0.80;;;0.80;;
19434;SDS011;9853;50.848;4.108;2023-08-17T04:53:27;3.58;;;1.30;;
19434;SDS011;9853;50.848;4.108;2023-08-17T04:55:27;3.03;;;1.65;;
19434;SDS011;9853;50.848;4.108;2023-08-17T04:57:29;1.35;;;0.90;;
19434;SDS011;9853;50.848;4.108;2023-08-17T04:59:32;1.30;;;0.70;;
19434;SDS011;9853;50.848;4.108;2023-08-17T05:01:32;3.75;;;1.33;;
19434;SDS011;9853;50.848;4.108;2023-08-17T05:03:33;4.00;;;1.15;;
19434;SDS011;9853;50.848;4.108;2023-08-17T05:05:34;1.73;;;0.95;;
19434;SDS011;9853;50.848;4.108;2023-08-17T05:07:38;2.30;;;1.15;;
19434;SDS011;9853;50.848;4.108;2023-08-17T05:09:39;1.50;;;0.88;;
19434;SDS011;9853;50.848;4.108;2023-08-17T05:11:41;3.35;;;1.17;;
19434;SDS011;9853;50.848;4.108;2023-08-17T05:13:41;2.40;;;1.10;;
19434;SDS011;9853;50.848;4.108;2023-08-17T05:15:42;2.60;;;1.40;;
19434;SDS011;9853;50.848;4.108;2023-08-17T05:17:44;0.85;;;0.68;;
19434;SDS011;9853;50.848;4.108;2023-08-17T05:19:46;1.70;;;0.95;;
19434;SDS011;9853;50.848;4.108;2023-08-17T05:21:46;2.35;;;1.05;;
19434;SDS011;9853;50.848;4.108;2023-08-17T05:23:50;1.55;;;1.17;;
19434;SDS011;9853;50.848;4.108;2023-08-17T05:25:51;2.28;;;1.20;;
19434;SDS011;9853;50.848;4.108;2023-08-17T05:27:52;1.35;;;0.90;;
19434;SDS011;9853;50.848;4.108;2023-08-17T05:29:54;1.55;;;0.98;;
19434;SDS011;9853;50.848;4.108;2023-08-17T05:31:55;1.20;;;0.88;;
19434;SDS011;9853;50.848;4.108;2023-08-17T05:33:56;4.45;;;1.08;;
19434;SDS011;9853;50.848;4.108;2023-08-17T05:35:59;0.90;;;0.70;;
19434;SDS011;9853;50.848;4.108;2023-08-17T05:37:59;1.40;;;0.93;;
19434;SDS011;9853;50.848;4.108;2023-08-17T05:40:00;1.75;;;1.05;;
19434;SDS011;9853;50.848;4.108;2023-08-17T05:42:01;1.55;;;0.85;;
19434;SDS011;9853;50.848;4.108;2023-08-17T05:44:02;1.33;;;1.02;;
19434;SDS011;9853;50.848;4.108;2023-08-17T05:46:03;7.43;;;1.48;;
19434;SDS011;9853;50.848;4.108;2023-08-17T05:48:05;1.48;;;0.95;;
19434;SDS011;9853;50.848;4.108;2023-08-17T05:50:06;2.47;;;1.50;;
19434;SDS011;9853;50.848;4.108;2023-08-17T05:52:07;1.75;;;1.17;;
19434;SDS011;9853;50.848;4.108;2023-08-17T05:54:08;1.35;;;0.90;;
19434;SDS011;9853;50.848;4.108;2023-08-17T05:56:09;4.55;;;1.00;;
19434;SDS011;9853;50.848;4.108;2023-08-17T05:58:09;1.38;;;0.90;;
19434;SDS011;9853;50.848;4.108;2023-08-17T06:00:10;2.67;;;1.27;;
19434;SDS011;9853;50.848;4.108;2023-08-17T06:02:16;2.33;;;1.25;;
19434;SDS011;9853;50.848;4.108;2023-08-17T06:04:17;1.08;;;0.98;;
19434;SDS011;9853;50.848;4.108;2023-08-17T06:06:18;1.73;;;0.75;;
19434;SDS011;9853;50.848;4.108;2023-08-17T06:08:19;6.15;;;1.05;;
19434;SDS011;9853;50.848;4.108;2023-08-17T06:10:19;2.38;;;1.05;;
19434;SDS011;9853;50.848;4.108;2023-08-17T06:12:20;3.13;;;0.93;;
19434;SDS011;9853;50.848;4.108;2023-08-17T06:14:21;2.17;;;1.25;;
19434;SDS011;9853;50.848;4.108;2023-08-17T06:16:22;0.90;;;0.80;;
19434;SDS011;9853;50.848;4.108;2023-08-17T06:18:23;1.13;;;0.77;;
19434;SDS011;9853;50.848;4.108;2023-08-17T06:20:23;1.40;;;0.90;;
19434;SDS011;9853;50.848;4.108;2023-08-17T06:22:24;1.10;;;0.93;;
19434;SDS011;9853;50.848;4.108;2023-08-17T06:24:25;2.78;;;1.42;;
19434;SDS011;9853;50.848;4.108;2023-08-17T06:26:26;1.95;;;1.10;;
19434;SDS011;9853;50.848;4.108;2023-08-17T06:28:26;1.13;;;0.90;;
19434;SDS011;9853;50.848;4.108;2023-08-17T06:30:28;1.38;;;1.25;;
19434;SDS011;9853;50.848;4.108;2023-08-17T06:32:32;3.13;;;1.10;;
19434;SDS011;9853;50.848;4.108;2023-08-17T06:34:32;3.10;;;1.08;;
19434;SDS011;9853;50.848;4.108;2023-08-17T06:36:33;2.80;;;0.93;;
19434;SDS011;9853;50.848;4.108;2023-08-17T06:38:34;1.27;;;0.90;;
19434;SDS011;9853;50.848;4.108;2023-08-17T06:40:35;2.05;;;1.05;;
19434;SDS011;9853;50.848;4.108;2023-08-17T06:42:36;1.58;;;1.13;;
19434;SDS011;9853;50.848;4.108;2023-08-17T06:44:37;2.38;;;1.23;;
19434;SDS011;9853;50.848;4.108;2023-08-17T06:46:37;4.07;;;1.33;;
19434;SDS011;9853;50.848;4.108;2023-08-17T06:48:38;3.67;;;0.93;;
19434;SDS011;9853;50.848;4.108;2023-08-17T06:50:39;1.98;;;1.00;;
19434;SDS011;9853;50.848;4.108;2023-08-17T06:52:40;1.98;;;1.13;;
19434;SDS011;9853;50.848;4.108;2023-08-17T06:54:40;1.95;;;1.05;;
19434;SDS011;9853;50.848;4.108;2023-08-17T06:56:42;1.80;;;1.13;;
19434;SDS011;9853;50.848;4.108;2023-08-17T06:58:43;1.13;;;1.00;;
19434;SDS011;9853;50.848;4.108;2023-08-17T07:00:44;2.40;;;1.20;;
19434;SDS011;9853;50.848;4.108;2023-08-17T07:02:46;3.42;;;1.27;;
19434;SDS011;9853;50.848;4.108;2023-08-17T07:04:47;5.60;;;0.88;;
19434;SDS011;9853;50.848;4.108;2023-08-17T07:06:48;1.23;;;1.00;;
19434;SDS011;9853;50.848;4.108;2023-08-17T07:08:49;2.70;;;1.65;;
19434;SDS011;9853;50.848;4.108;2023-08-17T07:10:50;3.20;;;1.10;;
19434;SDS011;9853;50.848;4.108;2023-08-17T07:12:50;2.53;;;1.10;;
19434;SDS011;9853;50.848;4.108;2023-08-17T07:14:51;1.10;;;0.88;;
19434;SDS011;9853;50.848;4.108;2023-08-17T07:16:53;1.63;;;1.08;;
19434;SDS011;9853;50.848;4.108;2023-08-17T07:18:54;2.45;;;0.98;;
19434;SDS011;9853;50.848;4.108;2023-08-17T07:20:54;1.83;;;1.00;;
19434;SDS011;9853;50.848;4.108;2023-08-17T07:22:55;4.13;;;1.13;;
19434;SDS011;9853;50.848;4.108;2023-08-17T07:24:56;1.90;;;1.23;;
19434;SDS011;9853;50.848;4.108;2023-08-17T07:26:57;1.88;;;1.35;;
19434;SDS011;9853;50.848;4.108;2023-08-17T07:28:58;1.00;;;0.90;;
19434;SDS011;9853;50.848;4.108;2023-08-17T07:30:59;1.58;;;1.13;;
19434;SDS011;9853;50.848;4.108;2023-08-17T07:32:59;1.75;;;1.15;;
19434;SDS011;9853;50.848;4.108;2023-08-17T07:35:00;2.22;;;1.23;;
19434;SDS011;9853;50.848;4.108;2023-08-17T07:37:01;4.97;;;1.00;;
19434;SDS011;9853;50.848;4.108;2023-08-17T07:39:03;3.30;;;1.15;;
19434;SDS011;9853;50.848;4.108;2023-08-17T07:41:05;1.73;;;0.90;;
19434;SDS011;9853;50.848;4.108;2023-08-17T07:43:05;2.78;;;1.35;;
19434;SDS011;9853;50.848;4.108;2023-08-17T07:45:06;5.88;;;1.25;;
19434;SDS011;9853;50.848;4.108;2023-08-17T07:47:07;1.98;;;1.38;;
19434;SDS011;9853;50.848;4.108;2023-08-17T07:49:08;3.50;;;1.50;;
19434;SDS011;9853;50.848;4.108;2023-08-17T07:51:09;3.50;;;1.45;;
19434;SDS011;9853;50.848;4.108;2023-08-17T07:53:10;3.05;;;1.65;;
19434;SDS011;9853;50.848;4.108;2023-08-17T07:55:12;1.60;;;1.02;;
19434;SDS011;9853;50.848;4.108;2023-08-17T07:57:13;2.13;;;1.58;;
19434;SDS011;9853;50.848;4.108;2023-08-17T07:59:14;3.00;;;1.48;;
19434;SDS011;9853;50.848;4.108;2023-08-17T08:01:14;2.95;;;1.38;;
19434;SDS011;9853;50.848;4.108;2023-08-17T08:03:15;5.25;;;1.70;;
19434;SDS011;9853;50.848;4.108;2023-08-17T08:05:16;2.78;;;1.92;;
19434;SDS011;9853;50.848;4.108;2023-08-17T08:07:16;5.07;;;1.98;;
19434;SDS011;9853;50.848;4.108;2023-08-17T08:09:17;4.05;;;1.80;;
19434;SDS011;9853;50.848;4.108;2023-08-17T08:11:18;4.00;;;1.80;;
19434;SDS011;9853;50.848;4.108;2023-08-17T08:13:21;4.10;;;1.98;;
19434;SDS011;9853;50.848;4.108;2023-08-17T08:15:22;3.20;;;2.00;;
19434;SDS011;9853;50.848;4.108;2023-08-17T08:17:22;3.35;;;1.88;;
19434;SDS011;9853;50.848;4.108;2023-08-17T08:19:23;3.42;;;1.83;;
19434;SDS011;9853;50.848;4.108;2023-08-17T08:21:24;2.85;;;1.85;;
19434;SDS011;9853;50.848;4.108;2023-08-17T08:23:27;2.75;;;1.70;;
19434;SDS011;9853;50.848;4.108;2023-08-17T08:25:29;5.30;;;2.35;;
19434;SDS011;9853;50.848;4.108;2023-08-17T08:27:30;14.75;;;2.10;;
19434;SDS011;9853;50.848;4.108;2023-08-17T08:29:31;2.47;;;1.60;;
19434;SDS011;9853;50.848;4.108;2023-08-17T08:31:31;3.58;;;1.98;;
19434;SDS011;9853;50.848;4.108;2023-08-17T08:33:32;2.15;;;1.35;;
19434;SDS011;9853;50.848;4.108;2023-08-17T08:35:33;4.25;;;2.00;;
19434;SDS011;9853;50.848;4.108;2023-08-17T08:37:33;4.85;;;2.15;;
19434;SDS011;9853;50.848;4.108;2023-08-17T08:39:47;2.28;;;1.63;;
19434;SDS011;9853;50.848;4.108;2023-08-17T08:41:52;4.63;;;1.90;;
19434;SDS011;9853;50.848;4.108;2023-08-17T08:43:53;8.15;;;2.28;;
19434;SDS011;9853;50.848;4.108;2023-08-17T08:45:54;6.10;;;2.53;;
19434;SDS011;9853;50.848;4.108;2023-08-17T08:47:56;5.47;;;1.98;;
19434;SDS011;9853;50.848;4.108;2023-08-17T08:50:01;5.38;;;2.10;;
19434;SDS011;9853;50.848;4.108;2023-08-17T08:52:03;3.08;;;1.40;;
19434;SDS011;9853;50.848;4.108;2023-08-17T08:54:07;2.25;;;1.45;;
19434;SDS011;9853;50.848;4.108;2023-08-17T08:56:11;3.65;;;2.30;;
19434;SDS011;9853;50.848;4.108;2023-08-17T08:58:15;4.97;;;2.47;;
19434;SDS011;9853;50.848;4.108;2023-08-17T09:00:16;4.15;;;2.00;;
19434;SDS011;9853;50.848;4.108;2023-08-17T09:02:18;3.13;;;1.60;;
19434;SDS011;9853;50.848;4.108;2023-08-17T09:04:19;5.05;;;1.85;;
19434;SDS011;9853;50.848;4.108;2023-08-17T09:06:20;2.53;;;1.88;;
19434;SDS011;9853;50.848;4.108;2023-08-17T09:08:25;4.45;;;1.60;;
19434;SDS011;9853;50.848;4.108;2023-08-17T09:10:30;9.07;;;3.13;;
19434;SDS011;9853;50.848;4.108;2023-08-17T09:12:31;7.80;;;1.85;;
19434;SDS011;9853;50.848;4.108;2023-08-17T09:14:32;4.90;;;2.45;;
19434;SDS011;9853;50.848;4.108;2023-08-17T09:16:33;3.55;;;2.08;;
19434;SDS011;9853;50.848;4.108;2023-08-17T09:18:34;2.13;;;1.42;;
19434;SDS011;9853;50.848;4.108;2023-08-17T09:20:36;2.92;;;1.27;;
19434;SDS011;9853;50.848;4.108;2023-08-17T09:24:40;3.00;;;1.40;;
19434;SDS011;9853;50.848;4.108;2023-08-17T09:26:41;1.67;;;1.35;;
19434;SDS011;9853;50.848;4.108;2023-08-17T09:28:42;5.63;;;1.98;;
19434;SDS011;9853;50.848;4.108;2023-08-17T09:30:59;2.58;;;1.40;;
19434;SDS011;9853;50.848;4.108;2023-08-17T09:33:03;2.92;;;1.88;;
19434;SDS011;9853;50.848;4.108;2023-08-17T09:35:04;3.83;;;1.48;;
19434;SDS011;9853;50.848;4.108;2023-08-17T09:37:06;4.30;;;2.28;;
19434;SDS011;9853;50.848;4.108;2023-08-17T09:39:07;4.50;;;1.45;;
19434;SDS011;9853;50.848;4.108;2023-08-17T09:41:08;2.70;;;1.38;;
19434;SDS011;9853;50.848;4.108;2023-08-17T09:43:09;3.10;;;1.38;;
19434;SDS011;9853;50.848;4.108;2023-08-17T09:45:10;3.50;;;1.80;;
19434;SDS011;9853;50.848;4.108;2023-08-17T09:47:11;2.72;;;1.60;;
19434;SDS011;9853;50.848;4.108;2023-08-17T09:49:12;12.13;;;1.65;;
19434;SDS011;9853;50.848;4.108;2023-08-17T09:51:15;4.10;;;2.33;;
19434;SDS011;9853;50.848;4.108;2023-08-17T09:53:17;2.70;;;1.73;;
19434;SDS011;9853;50.848;4.108;2023-08-17T09:55:18;5.85;;;1.60;;
19434;SDS011;9853;50.848;4.108;2023-08-17T09:57:22;3.25;;;1.85;;
19434;SDS011;9853;50.848;4.108;2023-08-17T09:59:22;2.95;;;1.77;;
19434;SDS011;9853;50.848;4.108;2023-08-17T10:01:24;4.20;;;1.95;;
19434;SDS011;9853;50.848;4.108;2023-08-17T10:03:27;2.17;;;1.23;;
19434;SDS011;9853;50.848;4.108;2023-08-17T10:05:32;3.22;;;1.55;;
19434;SDS011;9853;50.848;4.108;2023-08-17T10:07:41;3.88;;;1.63;;
19434;SDS011;9853;50.848;4.108;2023-08-17T10:09:48;3.25;;;1.80;;
19434;SDS011;9853;50.848;4.108;2023-08-17T10:11:56;4.05;;;1.95;;
19434;SDS011;9853;50.848;4.108;2023-08-17T10:14:01;2.88;;;1.42;;
19434;SDS011;9853;50.848;4.108;2023-08-17T10:20:34;4.20;;;1.88;;
19434;SDS011;9853;50.848;4.108;2023-08-17T10:22:46;4.30;;;1.85;;
19434;SDS011;9853;50.848;4.108;2023-08-17T10:25:04;3.78;;;2.00;;
19434;SDS011;9853;50.848;4.108;2023-08-17T10:27:07;2.78;;;2.17;;
19434;SDS011;9853;50.848;4.108;2023-08-17T10:29:09;4.38;;;2.28;;
19434;SDS011;9853;50.848;4.108;2023-08-17T10:31:11;3.28;;;2.17;;
19434;SDS011;9853;50.848;4.108;2023-08-17T10:33:12;2.83;;;1.40;;
19434;SDS011;9853;50.848;4.108;2023-08-17T10:35:13;5.43;;;1.67;;
19434;SDS011;9853;50.848;4.108;2023-08-17T10:37:14;4.80;;;1.92;;
19434;SDS011;9853;50.848;4.108;2023-08-17T10:39:22;4.18;;;2.00;;
19434;SDS011;9853;50.848;4.108;2023-08-17T10:41:24;5.13;;;2.20;;
19434;SDS011;9853;50.848;4.108;2023-08-17T10:43:32;5.18;;;1.60;;
19434;SDS011;9853;50.848;4.108;2023-08-17T10:45:34;3.05;;;1.90;;
19434;SDS011;9853;50.848;4.108;2023-08-17T10:47:38;4.30;;;2.30;;
19434;SDS011;9853;50.848;4.108;2023-08-17T10:49:39;6.75;;;1.80;;
19434;SDS011;9853;50.848;4.108;2023-08-17T10:51:43;5.13;;;2.30;;
19434;SDS011;9853;50.848;4.108;2023-08-17T10:54:02;4.30;;;1.92;;
19434;SDS011;9853;50.848;4.108;2023-08-17T10:56:06;8.85;;;1.85;;
19434;SDS011;9853;50.848;4.108;2023-08-17T10:58:08;4.32;;;1.90;;
19434;SDS011;9853;50.848;4.108;2023-08-17T11:00:16;5.28;;;2.03;;
19434;SDS011;9853;50.848;4.108;2023-08-17T11:02:26;2.03;;;1.55;;
19434;SDS011;9853;50.848;4.108;2023-08-17T11:04:32;1.85;;;1.45;;
19434;SDS011;9853;50.848;4.108;2023-08-17T11:06:33;2.83;;;1.48;;
19434;SDS011;9853;50.848;4.108;2023-08-17T11:08:38;4.10;;;2.03;;
19434;SDS011;9853;50.848;4.108;2023-08-17T11:10:47;4.07;;;2.05;;
19434;SDS011;9853;50.848;4.108;2023-08-17T11:12:57;5.30;;;2.00;;
19434;SDS011;9853;50.848;4.108;2023-08-17T11:15:01;2.70;;;1.88;;
19434;SDS011;9853;50.848;4.108;2023-08-17T11:17:03;6.75;;;1.48;;
19434;SDS011;9853;50.848;4.108;2023-08-17T11:19:04;4.30;;;1.90;;
19434;SDS011;9853;50.848;4.108;2023-08-17T11:21:05;5.03;;;1.70;;
19434;SDS011;9853;50.848;4.108;2023-08-17T11:23:07;4.88;;;2.05;;
19434;SDS011;9853;50.848;4.108;2023-08-17T11:25:08;2.83;;;1.80;;
19434;SDS011;9853;50.848;4.108;2023-08-17T11:27:09;3.33;;;2.05;;
19434;SDS011;9853;50.848;4.108;2023-08-17T11:29:10;2.72;;;1.60;;
19434;SDS011;9853;50.848;4.108;2023-08-17T11:31:12;2.75;;;2.03;;
19434;SDS011;9853;50.848;4.108;2023-08-17T11:33:14;6.22;;;2.22;;
19434;SDS011;9853;50.848;4.108;2023-08-17T11:35:15;8.18;;;1.90;;
19434;SDS011;9853;50.848;4.108;2023-08-17T11:37:16;2.30;;;1.85;;
19434;SDS011;9853;50.848;4.108;2023-08-17T11:39:17;4.32;;;1.98;;
19434;SDS011;9853;50.848;4.108;2023-08-17T11:41:21;3.35;;;2.00;;
19434;SDS011;9853;50.848;4.108;2023-08-17T11:43:21;1.88;;;1.40;;
19434;SDS011;9853;50.848;4.108;2023-08-17T11:45:23;3.28;;;2.28;;
19434;SDS011;9853;50.848;4.108;2023-08-17T11:47:23;10.50;;;1.88;;
19434;SDS011;9853;50.848;4.108;2023-08-17T11:49:24;2.10;;;1.42;;
19434;SDS011;9853;50.848;4.108;2023-08-17T11:51:28;2.28;;;1.60;;
19434;SDS011;9853;50.848;4.108;2023-08-17T11:53:33;3.13;;;1.67;;
19434;SDS011;9853;50.848;4.108;2023-08-17T11:55:34;3.45;;;2.00;;
19434;SDS011;9853;50.848;4.108;2023-08-17T11:57:36;4.00;;;2.17;;
19434;SDS011;9853;50.848;4.108;2023-08-17T11:59:37;5.78;;;2.25;;
19434;SDS011;9853;50.848;4.108;2023-08-17T12:01:38;2.75;;;2.30;;
19434;SDS011;9853;50.848;4.108;2023-08-17T12:03:39;2.92;;;1.88;;
19434;SDS011;9853;50.848;4.108;2023-08-17T12:05:45;3.22;;;1.67;;
19434;SDS011;9853;50.848;4.108;2023-08-17T12:07:46;4.50;;;2.17;;
19434;SDS011;9853;50.848;4.108;2023-08-17T12:09:47;5.50;;;2.53;;
19434;SDS011;9853;50.848;4.108;2023-08-17T12:11:53;3.47;;;2.03;;
19434;SDS011;9853;50.848;4.108;2023-08-17T12:13:58;5.93;;;2.55;;
19434;SDS011;9853;50.848;4.108;2023-08-17T12:15:59;2.35;;;1.48;;
19434;SDS011;9853;50.848;4.108;2023-08-17T12:18:02;4.68;;;2.00;;
19434;SDS011;9853;50.848;4.108;2023-08-17T12:20:04;4.03;;;2.08;;
19434;SDS011;9853;50.848;4.108;2023-08-17T12:22:05;3.47;;;1.98;;
19434;SDS011;9853;50.848;4.108;2023-08-17T12:24:06;2.58;;;1.75;;
19434;SDS011;9853;50.848;4.108;2023-08-17T12:26:07;3.75;;;1.92;;
19434;SDS011;9853;50.848;4.108;2023-08-17T12:28:07;3.97;;;2.00;;
19434;SDS011;9853;50.848;4.108;2023-08-17T12:30:12;4.50;;;2.00;;
19434;SDS011;9853;50.848;4.108;2023-08-17T12:32:14;2.65;;;1.65;;
19434;SDS011;9853;50.848;4.108;2023-08-17T12:34:17;4.57;;;2.47;;
19434;SDS011;9853;50.848;4.108;2023-08-17T12:36:17;4.70;;;2.22;;